Time;durP1;ratioP1;P1;durP2;ratioP2;P2;SDS_P1;SDS_P2;PMS_P1;PMS_P2;Temp;Humidity;BMP_temperature;BMP_pressure;BME280_temperature;BME280_humidity;BME280_pressure;Samples;Min_cycle;Max_cycle;Signal;HPM_P1;HPM_P2
2023/10/25 00:01:36;;;;;;;19.63;11.90;;;10.60;99.90;;;;;;6065460;23;20378;-90
2023/10/25 00:04:01;;;;;;;21.65;10.55;;;10.10;99.90;;;;;;6064812;23;20387;-90
2023/10/25 00:06:27;;;;;;;21.17;10.80;;;10.60;99.90;;;;;;6064742;23;20383;-89
2023/10/25 00:08:53;;;;;;;17.40;10.53;;;10.10;99.90;;;;;;6066053;23;20386;-90
2023/10/25 00:11:18;;;;;;;23.02;10.85;;;10.00;99.90;;;;;;6064094;23;20405;-91
2023/10/25 00:13:44;;;;;;;17.92;9.55;;;10.30;99.90;;;;;;6042150;23;20374;-91
2023/10/25 00:16:09;;;;;;;17.47;9.47;;;10.00;99.90;;;;;;6088661;23;20374;-91
2023/10/25 00:18:35;;;;;;;16.35;8.90;;;9.90;99.90;;;;;;6089179;23;20784;-91
2023/10/25 00:21:01;;;;;;;15.77;8.33;;;10.20;99.90;;;;;;6088727;23;20379;-91
2023/10/25 00:23:26;;;;;;;16.05;8.38;;;9.80;99.90;;;;;;6089032;23;20402;-91
2023/10/25 00:25:52;;;;;;;13.07;7.30;;;10.10;99.90;;;;;;6089357;23;20463;-88
2023/10/25 00:28:18;;;;;;;15.63;7.57;;;9.80;99.90;;;;;;6089109;23;20389;-91
2023/10/25 00:30:44;;;;;;;14.68;6.75;;;10.40;99.90;;;;;;6089695;23;20436;-90
2023/10/25 00:33:10;;;;;;;17.25;8.00;;;9.50;99.90;;;;;;6088561;23;20367;-92
2023/10/25 00:35:36;;;;;;;16.38;6.97;;;9.90;99.90;;;;;;6089739;23;20414;-92
2023/10/25 00:38:01;;;;;;;15.30;7.47;;;10.00;99.90;;;;;;6088920;23;20918;-91
2023/10/25 00:40:27;;;;;;;16.40;7.88;;;9.80;99.90;;;;;;6090878;23;20366;-93
2023/10/25 00:42:57;;;;;;;14.87;7.93;;;9.30;99.90;;;;;;6090968;23;20837;-91
2023/10/25 00:45:23;;;;;;;14.20;7.35;;;9.70;99.90;;;;;;6090679;23;20392;-91
2023/10/25 00:47:49;;;;;;;12.97;7.27;;;9.50;99.90;;;;;;6091481;23;20695;-90
2023/10/25 00:50:17;;;;;;;12.25;7.80;;;9.60;99.90;;;;;;6089877;23;20447;-91
2023/10/25 00:52:44;;;;;;;17.95;9.10;;;9.60;99.90;;;;;;6091387;23;20406;-91
2023/10/25 00:55:10;;;;;;;13.40;8.35;;;9.40;99.90;;;;;;6090509;23;20387;-91
2023/10/25 00:57:36;;;;;;;14.50;9.13;;;10.30;99.90;;;;;;6090986;23;20371;-91
2023/10/25 01:00:02;;;;;;;18.23;9.47;;;9.90;99.90;;;;;;6090278;23;20864;-90
2023/10/25 01:02:28;;;;;;;17.08;10.23;;;9.40;99.90;;;;;;6089997;23;20398;-90
2023/10/25 01:04:54;;;;;;;16.40;10.25;;;9.70;99.90;;;;;;6066908;23;20371;-90
2023/10/25 01:07:20;;;;;;;14.57;9.93;;;9.30;99.90;;;;;;6065953;23;20383;-89
2023/10/25 01:09:47;;;;;;;17.63;10.43;;;10.40;99.90;;;;;;6090777;23;20701;-92
2023/10/25 01:12:12;;;;;;;17.27;10.67;;;9.40;99.90;;;;;;6065804;23;20772;-90
2023/10/25 01:14:38;;;;;;;20.03;11.50;;;9.30;99.90;;;;;;6066776;23;20375;-90
2023/10/25 01:17:04;;;;;;;18.55;11.40;;;10.00;99.90;;;;;;6065892;23;20866;-90
2023/10/25 01:19:30;;;;;;;18.35;11.30;;;9.40;99.90;;;;;;6066945;23;20421;-90
2023/10/25 01:21:55;;;;;;;19.13;12.47;;;8.90;99.90;;;;;;6066490;23;20398;-90
2023/10/25 01:24:22;;;;;;;23.73;12.30;;;9.40;99.90;;;;;;6066284;23;20378;-89
2023/10/25 01:26:48;;;;;;;20.23;12.43;;;9.20;99.90;;;;;;6090850;23;20423;-90
2023/10/25 01:29:13;;;;;;;18.77;12.07;;;8.80;99.90;;;;;;6065769;23;20867;-88
2023/10/25 01:31:39;;;;;;;19.13;12.63;;;9.00;99.90;;;;;;6066992;23;20381;-93
2023/10/25 01:34:04;;;;;;;20.80;12.45;;;9.00;99.90;;;;;;6065875;23;20460;-90
2023/10/25 01:36:30;;;;;;;22.20;13.30;;;9.30;99.90;;;;;;6066461;23;20410;-90
2023/10/25 01:38:56;;;;;;;24.03;13.73;;;9.90;99.90;;;;;;6066050;23;20380;-90
2023/10/25 01:41:21;;;;;;;22.33;13.18;;;9.00;99.90;;;;;;6066122;23;20379;-91
2023/10/25 01:43:47;;;;;;;19.70;12.10;;;9.30;99.90;;;;;;6066051;23;20405;-90
2023/10/25 01:46:13;;;;;;;24.13;14.53;;;8.80;99.90;;;;;;6065883;23;20378;-89
2023/10/25 01:48:38;;;;;;;25.05;15.73;;;9.30;99.90;;;;;;6066537;23;20883;-90
2023/10/25 01:51:09;;;;;;;21.20;14.43;;;8.50;99.90;;;;;;6065440;23;20406;-91
2023/10/25 01:53:35;;;;;;;22.57;14.60;;;9.10;99.90;;;;;;6066739;23;20386;-91
2023/10/25 01:56:01;;;;;;;22.10;14.60;;;9.80;99.90;;;;;;6065708;23;20778;-89
2023/10/25 01:58:27;;;;;;;28.30;17.13;;;9.10;99.90;;;;;;6065769;23;20371;-92
2023/10/25 02:00:53;;;;;;;20.75;15.50;;;8.90;99.90;;;;;;6066271;23;20402;-90
2023/10/25 02:03:18;;;;;;;26.27;15.80;;;9.10;99.90;;;;;;6065623;23;20421;-90
2023/10/25 02:05:44;;;;;;;22.98;15.60;;;8.90;99.90;;;;;;6066365;23;20414;-90
2023/10/25 02:08:09;;;;;;;24.93;15.90;;;8.90;99.90;;;;;;6065565;23;20387;-89
2023/10/25 02:10:35;;;;;;;24.13;15.27;;;8.90;99.90;;;;;;6063044;23;20716;-91
2023/10/25 02:13:01;;;;;;;26.60;16.88;;;8.70;99.90;;;;;;6013474;23;20455;-90
2023/10/25 02:15:27;;;;;;;23.60;16.07;;;8.50;99.90;;;;;;6037298;23;20398;-91
2023/10/25 02:17:53;;;;;;;28.90;17.20;;;9.20;99.90;;;;;;6036924;23;20434;-89
2023/10/25 02:20:19;;;;;;;27.45;16.92;;;9.00;99.90;;;;;;6013544;23;20479;-90
2023/10/25 02:22:45;;;;;;;28.02;17.23;;;8.90;99.90;;;;;;6013411;23;20948;-90
2023/10/25 02:25:11;;;;;;;30.80;18.13;;;8.70;99.90;;;;;;6013065;23;20376;-90
2023/10/25 02:27:37;;;;;;;31.10;18.33;;;8.70;99.90;;;;;;6013772;23;20379;-91
2023/10/25 02:30:04;;;;;;;27.40;17.80;;;9.00;99.90;;;;;;6012843;23;20439;-89
2023/10/25 02:32:30;;;;;;;27.38;17.55;;;8.60;99.90;;;;;;6013691;23;20372;-90
2023/10/25 02:34:55;;;;;;;37.97;20.40;;;9.10;99.90;;;;;;6013012;23;20478;-91
2023/10/25 02:37:21;;;;;;;32.50;18.70;;;8.80;99.90;;;;;;6036924;23;20376;-90
2023/10/25 02:39:47;;;;;;;31.42;18.95;;;8.30;99.90;;;;;;6013178;23;20376;-90
2023/10/25 02:42:13;;;;;;;34.88;19.60;;;8.60;99.90;;;;;;6012472;23;20415;-89
2023/10/25 02:44:39;;;;;;;35.00;20.63;;;8.70;99.90;;;;;;6013450;23;20416;-89
2023/10/25 02:47:06;;;;;;;28.05;18.00;;;8.50;99.90;;;;;;6012846;23;20375;-90
2023/10/25 02:49:33;;;;;;;33.13;21.17;;;8.50;99.90;;;;;;6037296;23;20399;-90
2023/10/25 02:51:58;;;;;;;37.65;21.83;;;9.40;99.90;;;;;;6012223;23;20372;-90
2023/10/25 02:54:24;;;;;;;36.42;22.63;;;8.80;99.90;;;;;;6060362;23;20471;-89
2023/10/25 02:56:50;;;;;;;33.33;21.40;;;8.60;99.90;;;;;;6013422;23;20396;-90
2023/10/25 02:59:15;;;;;;;41.78;22.77;;;8.60;99.90;;;;;;6013094;23;20411;-90
2023/10/25 03:01:41;;;;;;;34.22;21.25;;;8.10;99.90;;;;;;6036953;23;20380;-89
2023/10/25 03:04:07;;;;;;;42.25;23.67;;;8.60;99.90;;;;;;6012466;23;20372;-89
2023/10/25 03:06:33;;;;;;;32.17;20.63;;;8.70;99.90;;;;;;6012210;23;20472;-91
2023/10/25 03:08:59;;;;;;;40.63;22.80;;;8.80;99.90;;;;;;6011509;23;20408;-91
2023/10/25 03:11:24;;;;;;;39.70;22.77;;;8.70;99.90;;;;;;6024182;23;20518;-89
2023/10/25 03:13:50;;;;;;;34.63;21.33;;;8.80;99.90;;;;;;6064000;23;20437;-90
2023/10/25 03:16:16;;;;;;;41.60;24.13;;;8.30;99.90;;;;;;6064845;23;20791;-91
2023/10/25 03:18:42;;;;;;;116.07;27.17;;;8.80;99.90;;;;;;6065002;23;20426;-89
2023/10/25 03:21:08;;;;;;;35.97;21.50;;;8.70;99.90;;;;;;6064807;23;20374;-89
2023/10/25 03:23:33;;;;;;;45.78;24.75;;;8.90;99.90;;;;;;6065664;23;20398;-90
2023/10/25 03:26:06;;;;;;;34.83;21.73;;;8.80;99.90;;;;;;6064844;23;20417;-89
2023/10/25 03:28:32;;;;;;;102.43;21.33;;;8.40;99.90;;;;;;6065439;23;20382;-91
2023/10/25 03:31:04;;;;;;;49.92;24.05;;;8.30;99.90;;;;;;6064592;23;20375;-91
2023/10/25 03:33:29;;;;;;;37.58;22.25;;;8.80;99.90;;;;;;6065152;23;20441;-88
2023/10/25 03:35:55;;;;;;;42.83;23.77;;;8.70;99.90;;;;;;6064825;23;20405;-90
2023/10/25 03:38:21;;;;;;;40.22;23.40;;;8.00;99.90;;;;;;6064750;23;20374;-89
2023/10/25 03:40:47;;;;;;;41.73;24.77;;;8.50;99.90;;;;;;6065317;23;20374;-93
2023/10/25 03:43:13;;;;;;;49.10;22.73;;;8.30;99.90;;;;;;6064612;23;20437;-91
2023/10/25 03:45:38;;;;;;;40.03;23.57;;;8.80;99.90;;;;;;6065320;23;20405;-91
2023/10/25 03:48:04;;;;;;;46.07;24.80;;;9.00;99.90;;;;;;6088226;23;20393;-91
2023/10/25 03:50:30;;;;;;;57.28;27.20;;;8.10;99.90;;;;;;6065224;23;20370;-89
2023/10/25 03:52:55;;;;;;;56.15;27.65;;;8.70;99.90;;;;;;6064363;23;20375;-91
2023/10/25 03:55:21;;;;;;;40.93;23.50;;;7.80;99.90;;;;;;6065032;23;20506;-90
2023/10/25 03:57:47;;;;;;;44.90;26.47;;;8.00;99.90;;;;;;6065085;23;20475;-90
2023/10/25 04:00:13;;;;;;;40.95;26.92;;;8.20;99.90;;;;;;6064685;23;20378;-89
2023/10/25 04:02:40;;;;;;;47.30;27.20;;;8.10;99.90;;;;;;6065184;23;20453;-92
2023/10/25 04:05:06;;;;;;;49.05;29.17;;;8.10;99.90;;;;;;6064423;23;20383;-90
2023/10/25 04:07:32;;;;;;;52.35;29.90;;;8.10;99.90;;;;;;6065230;23;20453;-91
2023/10/25 04:09:57;;;;;;;49.70;27.92;;;9.00;99.90;;;;;;6064298;23;20700;-89
2023/10/25 04:12:23;;;;;;;59.97;32.05;;;8.50;99.90;;;;;;6064780;23;20386;-90
2023/10/25 04:14:49;;;;;;;51.17;30.27;;;8.40;99.90;;;;;;6066316;23;20374;-90
2023/10/25 04:17:15;;;;;;;65.23;32.80;;;8.10;99.90;;;;;;6066414;23;20378;-90
2023/10/25 04:19:41;;;;;;;70.53;35.23;;;8.50;99.90;;;;;;6067092;23;20378;-89
2023/10/25 04:22:07;;;;;;;47.73;28.77;;;8.00;99.90;;;;;;6060791;23;20399;-88
2023/10/25 04:24:33;;;;;;;60.03;33.97;;;8.20;99.90;;;;;;6066717;23;20882;-90
2023/10/25 04:27:02;;;;;;;56.53;32.97;;;8.20;99.90;;;;;;6065605;23;20918;-91
2023/10/25 04:29:28;;;;;;;74.80;36.85;;;8.20;99.90;;;;;;6066372;23;20954;-89
2023/10/25 04:31:55;;;;;;;61.97;34.08;;;8.30;99.90;;;;;;6066661;23;20397;-89
2023/10/25 04:34:20;;;;;;;68.07;36.15;;;8.10;99.90;;;;;;6066401;23;20374;-89
2023/10/25 04:36:47;;;;;;;56.50;33.30;;;8.20;99.90;;;;;;6066274;23;20524;-89
2023/10/25 04:39:13;;;;;;;62.60;34.17;;;8.60;99.90;;;;;;6065322;23;20972;-89
2023/10/25 04:41:40;;;;;;;61.83;34.37;;;8.20;99.90;;;;;;6066419;23;20445;-91
2023/10/25 04:44:06;;;;;;;56.50;33.40;;;8.70;99.90;;;;;;6065924;23;20835;-90
2023/10/25 04:46:31;;;;;;;47.72;30.60;;;8.20;99.90;;;;;;6066659;23;20406;-91
2023/10/25 04:48:57;;;;;;;61.70;35.37;;;8.30;99.90;;;;;;6066356;23;20426;-90
2023/10/25 04:51:23;;;;;;;65.30;34.85;;;8.30;99.90;;;;;;6066204;23;20445;-90
2023/10/25 04:53:48;;;;;;;59.70;33.92;;;8.20;99.90;;;;;;6066446;23;20386;-89
2023/10/25 04:56:14;;;;;;;60.10;34.43;;;8.40;99.90;;;;;;6065802;23;21175;-90
2023/10/25 04:58:40;;;;;;;57.75;32.95;;;8.30;99.90;;;;;;6067293;23;20378;-90
2023/10/25 05:01:13;;;;;;;61.78;33.03;;;8.70;99.90;;;;;;6066466;23;20386;-90
2023/10/25 05:03:38;;;;;;;62.63;33.88;;;8.10;99.90;;;;;;6066688;23;20830;-91
2023/10/25 05:06:06;;;;;;;78.38;37.05;;;7.90;99.90;;;;;;6066001;23;20410;-90
2023/10/25 05:08:33;;;;;;;49.05;31.88;;;8.00;99.90;;;;;;6042748;23;20379;-91
2023/10/25 05:11:03;;;;;;;52.72;31.65;;;8.00;99.90;;;;;;6061303;23;20396;-92
2023/10/25 05:13:29;;;;;;;76.75;37.10;;;8.10;99.90;;;;;;6061174;23;20362;-89
2023/10/25 05:15:55;;;;;;;51.00;30.45;;;8.00;99.90;;;;;;6014581;23;20411;-90
2023/10/25 05:18:21;;;;;;;73.10;35.97;;;7.90;99.90;;;;;;6013527;23;20376;-91
2023/10/25 05:20:57;;;;;;;57.78;33.58;;;7.90;99.90;;;;;;6013361;23;20824;-90
2023/10/25 05:23:27;;;;;;;71.65;37.97;;;7.90;99.90;;;;;;6013462;23;20410;-90
2023/10/25 05:25:53;;;;;;;200.23;37.70;;;8.10;99.90;;;;;;6013997;23;20455;-91
2023/10/25 05:28:19;;;;;;;80.47;37.28;;;7.90;99.90;;;;;;6037420;23;20448;-90
2023/10/25 05:30:45;;;;;;;70.90;35.88;;;7.90;99.90;;;;;;6060675;23;20552;-90
2023/10/25 05:33:12;;;;;;;87.20;38.75;;;8.10;99.90;;;;;;6014358;23;20372;-90
2023/10/25 05:35:39;;;;;;;78.55;36.38;;;7.80;99.90;;;;;;6084957;23;20377;-90
2023/10/25 05:38:06;;;;;;;66.53;34.77;;;7.80;99.90;;;;;;6014704;23;20380;-91
2023/10/25 05:40:32;;;;;;;59.97;33.50;;;7.70;99.90;;;;;;6012830;23;20376;-90
2023/10/25 05:43:02;;;;;;;62.70;31.15;;;7.70;99.90;;;;;;6085518;23;20446;-90
2023/10/25 05:45:27;;;;;;;57.58;31.10;;;7.70;99.90;;;;;;6061467;23;20857;-91
2023/10/25 05:47:54;;;;;;;57.23;31.87;;;7.70;99.90;;;;;;6013628;23;20471;-91
2023/10/25 05:50:20;;;;;;;69.22;37.22;;;7.60;99.90;;;;;;6013907;23;20422;-90
2023/10/25 05:52:46;;;;;;;74.50;39.58;;;7.60;99.90;;;;;;6060599;23;20396;-90
2023/10/25 05:55:14;;;;;;;69.93;36.53;;;7.60;99.90;;;;;;6062021;23;20407;-91
2023/10/25 05:57:40;;;;;;;54.42;31.70;;;7.60;99.90;;;;;;6060874;23;20483;-91
2023/10/25 06:00:06;;;;;;;61.17;33.72;;;7.60;99.90;;;;;;6013854;23;20428;-90
2023/10/25 06:02:33;;;;;;;62.20;32.80;;;7.60;99.90;;;;;;6012817;23;20586;-90
2023/10/25 06:05:01;;;;;;;64.07;34.22;;;7.60;99.90;;;;;;6013619;23;20376;-90
2023/10/25 06:07:27;;;;;;;51.10;29.92;;;7.60;99.90;;;;;;6061640;23;20376;-90
2023/10/25 06:09:55;;;;;;;52.93;31.40;;;7.50;99.90;;;;;;6012846;23;20459;-91
2023/10/25 06:12:22;;;;;;;54.47;30.65;;;7.50;99.90;;;;;;6060967;23;20435;-90
2023/10/25 06:14:48;;;;;;;59.80;31.80;;;7.50;99.90;;;;;;6036481;23;20458;-91
2023/10/25 06:17:14;;;;;;;50.47;29.70;;;7.70;99.90;;;;;;6061661;23;20730;-90
2023/10/25 06:19:39;;;;;;;58.87;32.00;;;7.60;99.90;;;;;;6036665;23;20376;-90
2023/10/25 06:22:05;;;;;;;52.75;30.50;;;8.20;99.90;;;;;;6036842;23;20997;-90
2023/10/25 06:24:31;;;;;;;50.67;30.20;;;7.50;99.90;;;;;;6036779;23;20834;-90
2023/10/25 06:26:56;;;;;;;46.07;28.07;;;7.60;99.90;;;;;;6036239;23;20380;-90
2023/10/25 06:29:23;;;;;;;56.28;29.02;;;7.90;99.90;;;;;;6036856;23;20377;-90
2023/10/25 06:31:52;;;;;;;51.30;27.90;;;7.60;99.90;;;;;;6035605;23;20453;-88
2023/10/25 06:34:21;;;;;;;55.53;29.20;;;7.60;99.90;;;;;;6012867;23;20372;-90
2023/10/25 06:36:47;;;;;;;54.83;30.17;;;7.90;99.90;;;;;;6059901;23;20380;-90
2023/10/25 06:39:13;;;;;;;46.25;27.13;;;7.50;99.90;;;;;;6060763;23;20400;-90
2023/10/25 06:41:39;;;;;;;41.45;26.23;;;7.60;99.90;;;;;;6012903;23;21044;-89
2023/10/25 06:44:05;;;;;;;45.67;26.35;;;7.60;99.90;;;;;;6012632;23;20404;-90
2023/10/25 06:46:32;;;;;;;41.70;25.33;;;7.60;99.90;;;;;;6013071;23;20858;-90
2023/10/25 06:48:58;;;;;;;47.22;26.40;;;7.60;99.90;;;;;;6035975;23;20502;-89
2023/10/25 06:51:25;;;;;;;42.95;25.23;;;7.70;99.90;;;;;;6012896;23;20372;-88
2023/10/25 06:53:51;;;;;;;41.08;24.65;;;7.70;99.90;;;;;;6012329;23;20376;-90
2023/10/25 06:56:17;;;;;;;42.78;24.98;;;7.80;99.90;;;;;;6060932;23;20413;-90
2023/10/25 06:58:43;;;;;;;31.52;20.27;;;8.20;99.90;;;;;;6060251;23;20380;-89
2023/10/25 07:01:13;;;;;;;37.40;22.83;;;7.80;99.90;;;;;;6083033;23;20380;-90
2023/10/25 07:03:45;;;;;;;44.60;25.37;;;7.90;99.90;;;;;;6012224;23;20439;-90
2023/10/25 07:06:12;;;;;;;44.33;25.75;;;7.90;99.90;;;;;;6059820;23;20384;-89
2023/10/25 07:08:38;;;;;;;35.25;21.92;;;8.40;99.90;;;;;;6012922;23;20436;-90
2023/10/25 07:11:03;;;;;;;35.10;22.25;;;8.00;99.90;;;;;;6043337;23;20382;-89
2023/10/25 07:13:30;;;;;;;33.93;20.33;;;8.40;99.90;;;;;;6065066;23;20417;-89
2023/10/25 07:15:56;;;;;;;33.40;20.02;;;8.10;99.90;;;;;;6064084;23;20393;-90
2023/10/25 07:18:23;;;;;;;31.65;20.02;;;8.20;99.90;;;;;;6064957;23;20783;-90
2023/10/25 07:20:50;;;;;;;31.15;20.10;;;8.40;99.90;;;;;;6064652;23;20709;-90
2023/10/25 07:23:16;;;;;;;35.83;22.13;;;8.00;99.90;;;;;;6064704;23;20796;-89
2023/10/25 07:25:43;;;;;;;30.02;19.58;;;8.20;99.90;;;;;;6064896;23;20410;-90
2023/10/25 07:28:08;;;;;;;38.53;21.13;;;8.10;99.90;;;;;;6064700;23;20371;-90
2023/10/25 07:30:34;;;;;;;28.60;19.37;;;8.30;99.90;;;;;;6065285;23;20405;-90
2023/10/25 07:33:00;;;;;;;34.58;21.23;;;8.10;99.90;;;;;;6063930;23;20714;-89
2023/10/25 07:35:26;;;;;;;31.17;20.00;;;8.40;99.90;;;;;;6064761;23;20375;-88
2023/10/25 07:37:52;;;;;;;29.20;19.97;;;8.30;99.90;;;;;;6063894;23;20934;-88
2023/10/25 07:40:17;;;;;;;33.42;21.00;;;8.40;99.90;;;;;;6064232;23;20481;-88
2023/10/25 07:42:43;;;;;;;31.27;20.00;;;8.60;99.90;;;;;;6064977;23;20946;-89
2023/10/25 07:45:09;;;;;;;29.30;19.47;;;8.40;99.90;;;;;;6087929;23;20756;-89
2023/10/25 07:47:35;;;;;;;31.35;21.55;;;8.20;99.90;;;;;;6065135;23;20374;-89
2023/10/25 07:50:01;;;;;;;35.17;23.90;;;7.90;99.90;;;;;;6062625;23;20409;-89
2023/10/25 07:52:30;;;;;;;37.43;28.20;;;8.50;99.90;;;;;;6063288;23;20728;-89
2023/10/25 07:54:55;;;;;;;36.63;25.90;;;8.60;99.90;;;;;;6063798;23;20700;-89
2023/10/25 07:57:22;;;;;;;40.40;26.15;;;8.40;99.90;;;;;;6063897;23;20398;-90
2023/10/25 07:59:47;;;;;;;42.13;26.77;;;8.60;99.90;;;;;;6040713;23;20502;-89
2023/10/25 08:02:13;;;;;;;29.10;21.87;;;8.30;99.90;;;;;;6063701;23;20398;-88
2023/10/25 08:04:39;;;;;;;29.67;21.88;;;8.50;99.90;;;;;;6041150;23;20902;-89
2023/10/25 08:07:04;;;;;;;31.13;21.40;;;8.20;99.90;;;;;;6039684;23;20788;-90
2023/10/25 08:09:30;;;;;;;28.88;19.90;;;9.10;99.90;;;;;;6064920;23;20710;-89
2023/10/25 08:11:56;;;;;;;29.25;20.10;;;8.70;99.90;;;;;;6062774;23;20863;-89
2023/10/25 08:14:22;;;;;;;25.77;18.65;;;8.70;99.90;;;;;;6064583;23;20390;-89
2023/10/25 08:16:48;;;;;;;23.88;18.27;;;8.80;99.90;;;;;;6064173;23;20374;-89
2023/10/25 08:19:15;;;;;;;35.60;22.15;;;8.80;99.90;;;;;;6063480;23;20418;-90
2023/10/25 08:21:41;;;;;;;28.65;19.88;;;8.90;99.90;;;;;;6064581;23;20981;-89
2023/10/25 08:24:07;;;;;;;28.37;20.93;;;8.40;99.90;;;;;;6063571;23;20426;-89
2023/10/25 08:26:37;;;;;;;29.92;21.90;;;8.70;99.90;;;;;;6064351;23;20386;-91
2023/10/25 08:29:03;;;;;;;29.80;20.67;;;8.60;99.90;;;;;;6063695;23;20887;-90
2023/10/25 08:31:29;;;;;;;27.77;19.03;;;8.90;99.90;;;;;;6062777;23;20381;-89
2023/10/25 08:33:55;;;;;;;29.70;21.20;;;9.20;99.90;;;;;;6062973;23;20897;-89
2023/10/25 08:36:20;;;;;;;26.48;19.95;;;8.60;99.90;;;;;;6038733;23;20724;-90
2023/10/25 08:38:46;;;;;;;31.20;20.97;;;9.30;99.90;;;;;;6039628;23;20414;-89
2023/10/25 08:41:11;;;;;;;30.80;20.20;;;9.20;99.90;;;;;;6062860;23;20984;-90
2023/10/25 08:43:40;;;;;;;23.42;18.83;;;9.30;99.90;;;;;;6064940;23;20509;-91
2023/10/25 08:46:06;;;;;;;24.88;19.33;;;9.20;99.90;;;;;;6063831;23;20426;-89
2023/10/25 08:48:32;;;;;;;23.25;16.92;;;10.00;99.90;;;;;;6063750;23;20374;-90
2023/10/25 08:51:03;;;;;;;24.90;19.35;;;9.80;99.90;;;;;;6063779;23;20457;-90
2023/10/25 08:53:29;;;;;;;27.38;19.08;;;9.40;99.90;;;;;;6064069;23;20434;-91
2023/10/25 08:55:57;;;;;;;22.95;16.13;;;9.30;99.90;;;;;;6064372;23;20371;-89
2023/10/25 08:58:24;;;;;;;18.85;13.85;;;9.80;99.90;;;;;;6063604;23;20375;-90
2023/10/25 09:00:51;;;;;;;20.45;14.93;;;10.10;99.90;;;;;;6065448;23;20375;-89
2023/10/25 09:03:32;;;;;;;17.35;13.55;;;9.80;99.90;;;;;;6065519;23;20395;-90
2023/10/25 09:06:03;;;;;;;21.95;16.48;;;10.10;99.90;;;;;;6066087;23;20450;-90
2023/10/25 09:08:29;;;;;;;17.33;14.02;;;9.50;99.90;;;;;;6065709;23;20441;-90
2023/10/25 09:11:02;;;;;;;14.65;11.60;;;9.80;99.90;;;;;;6060538;23;20388;-91
2023/10/25 09:13:33;;;;;;;15.30;13.30;;;9.90;99.90;;;;;;6061382;23;20391;-89
2023/10/25 09:16:04;;;;;;;18.98;14.25;;;10.30;99.90;;;;;;6085089;23;20471;-90
2023/10/25 09:18:31;;;;;;;21.02;15.07;;;10.00;99.90;;;;;;6061395;23;20384;-89
2023/10/25 09:20:58;;;;;;;20.60;13.93;;;10.20;99.90;;;;;;6061151;23;20416;-91
2023/10/25 09:23:23;;;;;;;18.63;13.80;;;10.40;99.90;;;;;;6012994;23;20734;-91
2023/10/25 09:25:49;;;;;;;15.57;12.48;;;10.20;99.90;;;;;;6061094;23;20379;-91
2023/10/25 09:28:26;;;;;;;15.18;11.77;;;10.40;99.90;;;;;;6013271;23;20384;-93
2023/10/25 09:30:56;;;;;;;17.60;11.68;;;11.10;99.90;;;;;;6061870;23;20382;-90
2023/10/25 09:33:22;;;;;;;17.67;13.30;;;10.60;99.90;;;;;;6036209;23;20436;-91
2023/10/25 09:35:49;;;;;;;17.67;12.88;;;10.70;99.90;;;;;;6061515;23;20812;-91
2023/10/25 09:38:15;;;;;;;20.55;14.80;;;10.50;99.90;;;;;;6060823;23;20388;-91
2023/10/25 09:40:44;;;;;;;17.67;14.40;;;10.50;99.90;;;;;;6061092;23;20384;-91
2023/10/25 09:43:20;;;;;;;18.45;13.82;;;10.60;99.90;;;;;;6061593;23;20818;-91
2023/10/25 09:45:53;;;;;;;17.60;13.68;;;10.60;99.90;;;;;;6060523;23;20376;-91
2023/10/25 09:48:20;;;;;;;17.23;13.90;;;10.90;99.90;;;;;;6061613;23;20392;-91
2023/10/25 09:51:17;;;;;;;18.55;13.00;;;11.00;99.90;;;;;;6060268;23;20455;-90
2023/10/25 09:54:06;;;;;;;15.95;11.82;;;10.80;99.90;;;;;;6061602;23;20738;-90
2023/10/25 09:56:33;;;;;;;15.07;11.77;;;10.90;99.90;;;;;;6061857;23;20392;-93
2023/10/25 09:59:00;;;;;;;13.45;9.93;;;10.90;99.90;;;;;;6059582;23;20370;-91
2023/10/25 10:01:26;;;;;;;13.00;9.70;;;11.30;99.90;;;;;;6108803;23;20870;-92
2023/10/25 10:04:08;;;;;;;12.07;10.23;;;11.20;99.90;;;;;;6084389;23;20410;-91
2023/10/25 10:07:03;;;;;;;13.57;10.95;;;10.90;99.90;;;;;;6060699;23;20422;-91
2023/10/25 10:09:35;;;;;;;11.85;10.43;;;11.00;99.90;;;;;;6061481;23;20858;-92
2023/10/25 10:12:06;;;;;;;12.27;10.88;;;11.00;99.90;;;;;;6059345;23;20391;-90
2023/10/25 10:14:38;;;;;;;12.35;10.90;;;11.10;99.90;;;;;;6036951;23;20423;-93
2023/10/25 10:17:03;;;;;;;14.98;11.20;;;11.10;99.90;;;;;;6012883;23;20683;-90
2023/10/25 10:19:36;;;;;;;12.90;9.15;;;11.20;99.90;;;;;;6036840;23;20383;-92
2023/10/25 10:22:13;;;;;;;13.48;9.63;;;11.50;99.90;;;;;;6036504;23;20760;-91
2023/10/25 10:24:45;;;;;;;15.55;11.75;;;11.20;99.90;;;;;;6036483;23;20377;-95
2023/10/25 10:27:15;;;;;;;14.68;10.85;;;11.40;99.90;;;;;;6061045;23;20380;-92
2023/10/25 10:29:42;;;;;;;13.73;11.07;;;11.20;99.90;;;;;;6059323;23;20381;-93
2023/10/25 10:32:09;;;;;;;15.10;10.77;;;11.40;99.90;;;;;;6013715;23;20384;-92
2023/10/25 10:34:49;;;;;;;11.80;9.70;;;12.20;99.90;;;;;;6012230;23;20427;-93
2023/10/25 10:37:20;;;;;;;12.35;8.80;;;11.60;99.90;;;;;;6036469;23;20396;-93
2023/10/25 10:39:59;;;;;;;12.90;10.23;;;12.00;99.90;;;;;;6036832;23;20415;-92
2023/10/25 10:42:30;;;;;;;11.67;10.27;;;12.60;99.90;;;;;;6035953;23;20404;-91
2023/10/25 10:45:01;;;;;;;10.82;9.40;;;11.90;99.90;;;;;;6036359;23;20388;-93
2023/10/25 10:47:33;;;;;;;11.52;9.45;;;11.90;99.90;;;;;;6035038;23;20455;-93
2023/10/25 10:50:18;;;;;;;14.93;12.40;;;11.30;99.90;;;;;;6036692;23;20391;-93
2023/10/25 10:52:45;;;;;;;11.55;9.50;;;12.00;99.90;;;;;;6036523;23;20376;-93
2023/10/25 10:55:15;;;;;;;11.80;9.93;;;12.10;99.90;;;;;;6059792;23;20435;-93
2023/10/25 10:57:41;;;;;;;10.88;8.80;;;12.00;99.90;;;;;;6036710;23;20440;-93
2023/10/25 11:00:09;;;;;;;13.75;10.35;;;12.10;99.90;;;;;;6035059;23;20383;-91
2023/10/25 11:02:39;;;;;;;13.48;10.90;;;12.10;99.90;;;;;;6013069;23;20491;-94
2023/10/25 11:05:06;;;;;;;11.35;10.13;;;12.70;99.90;;;;;;6012830;23;20388;-93
2023/10/25 11:07:32;;;;;;;12.27;10.10;;;12.20;99.90;;;;;;6013150;23;20399;-93
2023/10/25 11:09:58;;;;;;;11.60;9.97;;;12.60;99.90;;;;;;6012325;23;20380;-92
2023/10/25 11:12:24;;;;;;;14.82;10.60;;;12.20;99.90;;;;;;6055335;23;20911;-93
2023/10/25 11:14:50;;;;;;;11.43;8.63;;;11.60;99.90;;;;;;6012608;23;20377;-94
2023/10/25 11:17:16;;;;;;;12.73;9.80;;;12.50;99.90;;;;;;6083354;23;20400;-94
2023/10/25 11:19:47;;;;;;;13.13;8.90;;;12.30;99.90;;;;;;6084576;23;20376;-93
2023/10/25 11:22:14;;;;;;;13.10;9.38;;;12.50;99.90;;;;;;6059482;23;20750;-92
2023/10/25 11:24:40;;;;;;;11.98;9.07;;;12.40;99.90;;;;;;6084469;23;20387;-93
2023/10/25 11:27:06;;;;;;;13.15;10.07;;;12.10;99.90;;;;;;6059555;23;20376;-92
2023/10/25 11:29:33;;;;;;;11.32;7.90;;;12.50;99.90;;;;;;6059196;23;20415;-92
2023/10/25 11:32:01;;;;;;;14.07;9.52;;;12.60;99.90;;;;;;6060655;23;20368;-93
2023/10/25 11:34:33;;;;;;;11.77;8.95;;;12.50;99.90;;;;;;6012209;23;20377;-94
2023/10/25 11:37:03;;;;;;;10.38;8.60;;;12.40;99.90;;;;;;6060691;23;20372;-94
2023/10/25 11:39:34;;;;;;;11.73;9.00;;;12.40;99.90;;;;;;6058924;23;20395;-93
2023/10/25 11:42:00;;;;;;;14.50;9.50;;;11.90;99.90;;;;;;6059682;23;20447;-94
2023/10/25 11:44:27;;;;;;;10.95;8.65;;;12.60;99.90;;;;;;6011486;23;20384;-92
2023/10/25 11:46:58;;;;;;;13.32;9.88;;;12.60;99.90;;;;;;6083804;23;20378;-94
2023/10/25 11:49:24;;;;;;;17.97;11.00;;;12.70;99.90;;;;;;6059749;23;20750;-93
2023/10/25 11:51:52;;;;;;;13.97;10.13;;;12.50;99.90;;;;;;6058818;23;20368;-94
2023/10/25 11:54:18;;;;;;;14.83;11.63;;;12.70;99.90;;;;;;6013103;23;20854;-93
2023/10/25 11:56:44;;;;;;;15.70;9.60;;;12.50;99.90;;;;;;6012569;23;20512;-93
2023/10/25 11:59:09;;;;;;;14.55;11.57;;;12.60;99.90;;;;;;6013026;23;20379;-93
2023/10/25 12:01:35;;;;;;;13.97;10.47;;;12.70;99.90;;;;;;6011875;23;20678;-93
2023/10/25 12:04:00;;;;;;;14.18;11.13;;;12.40;99.90;;;;;;6012507;23;20400;-93
2023/10/25 12:06:26;;;;;;;13.40;10.38;;;12.50;99.90;;;;;;6012385;23;20395;-93
2023/10/25 12:08:54;;;;;;;13.87;10.60;;;12.80;99.90;;;;;;6011856;23;20407;-95
2023/10/25 12:11:20;;;;;;;13.68;9.80;;;13.10;99.90;;;;;;6059608;23;20391;-94
2023/10/25 12:13:46;;;;;;;11.80;9.60;;;12.70;99.90;;;;;;6011707;23;20376;-92
2023/10/25 12:16:13;;;;;;;13.85;10.77;;;12.90;99.90;;;;;;6037126;23;20438;-94
2023/10/25 12:18:39;;;;;;;12.90;10.38;;;12.60;99.90;;;;;;6011552;23;20423;-94
2023/10/25 12:21:06;;;;;;;11.57;10.20;;;12.80;99.90;;;;;;6013092;23;20383;-94
2023/10/25 12:23:32;;;;;;;12.63;10.43;;;12.80;99.90;;;;;;6011485;23;20451;-94
2023/10/25 12:25:59;;;;;;;14.25;11.27;;;13.20;99.90;;;;;;6012715;23;20412;-93
2023/10/25 12:28:25;;;;;;;11.52;8.65;;;13.30;99.90;;;;;;6037784;23;20368;-95
2023/10/25 12:30:51;;;;;;;10.07;6.85;;;13.10;99.90;;;;;;6060807;23;20967;-95
2023/10/25 12:33:17;;;;;;;10.98;7.43;;;13.00;99.90;;;;;;6016654;23;20462;-95
2023/10/25 12:35:46;;;;;;;9.13;6.30;;;12.90;99.90;;;;;;6062389;23;20391;-95